Time;durP1;ratioP1;P1;durP2;ratioP2;P2;SDS_P1;SDS_P2;PMS_P1;PMS_P2;Temp;Humidity;BMP_temperature;BMP_pressure;BME280_temperature;BME280_humidity;BME280_pressure;Samples;Min_cycle;Max_cycle;Signal;HPM_P1;HPM_P2
2023/07/04 00:00:08;;;;;;;7.50;4.22;;;;;;;;;;5095828;28;20044;-83
2023/07/04 00:02:35;;;;;;;7.97;4.22;;;;;;;;;;5095093;28;20048;-82
2023/07/04 00:05:06;;;;;;;8.10;4.13;;;;;;;;;;5097585;28;20071;-83
2023/07/04 00:07:34;;;;;;;8.63;4.60;;;;;;;;;;5095510;28;20048;-83
2023/07/04 00:10:03;;;;;;;14.43;4.75;;;;;;;;;;5095509;28;20052;-83
2023/07/04 00:12:35;;;;;;;9.05;4.07;;;;;;;;;;5094893;28;20070;-82
2023/07/04 00:15:03;;;;;;;7.40;4.20;;;;;;;;;;5095122;28;20048;-83
2023/07/04 00:17:38;;;;;;;5.13;3.88;;;;;;;;;;5096451;28;20058;-83
2023/07/04 00:20:06;;;;;;;5.15;4.05;;;;;;;;;;5095619;28;20054;-84
2023/07/04 00:22:36;;;;;;;6.78;4.07;;;;;;;;;;5095032;28;20489;-82
2023/07/04 00:25:04;;;;;;;9.50;4.40;;;;;;;;;;5095310;28;20052;-83
2023/07/04 00:27:40;;;;;;;7.32;4.00;;;;;;;;;;5095773;28;20048;-83
2023/07/04 00:30:09;;;;;;;7.53;4.05;;;;;;;;;;5094944;28;20044;-84
2023/07/04 00:32:37;;;;;;;4.60;3.58;;;;;;;;;;5095069;28;20044;-83
2023/07/04 00:35:05;;;;;;;8.43;4.18;;;;;;;;;;5095343;28;20052;-83
2023/07/04 00:37:32;;;;;;;9.00;4.10;;;;;;;;;;5093117;28;20093;-83
2023/07/04 00:40:09;;;;;;;6.70;4.00;;;;;;;;;;5096597;28;20044;-83
2023/07/04 00:42:36;;;;;;;5.13;3.70;;;;;;;;;;5096743;28;20044;-84
2023/07/04 00:45:20;;;;;;;5.18;4.05;;;;;;;;;;5096655;28;20044;-83
2023/07/04 00:47:53;;;;;;;5.68;3.78;;;;;;;;;;5098276;28;20425;-84
2023/07/04 00:50:23;;;;;;;7.53;3.72;;;;;;;;;;5098531;28;20048;-83
2023/07/04 00:52:50;;;;;;;8.73;3.95;;;;;;;;;;5099106;28;20044;-83
2023/07/04 00:55:18;;;;;;;8.07;3.80;;;;;;;;;;5099284;28;20101;-82
2023/07/04 00:57:48;;;;;;;6.38;4.28;;;;;;;;;;5099149;28;20052;-83
2023/07/04 01:00:19;;;;;;;11.23;3.97;;;;;;;;;;5098586;28;20051;-83
2023/07/04 01:03:24;;;;;;;4.65;3.22;;;;;;;;;;5098447;28;20055;-83
2023/07/04 01:05:52;;;;;;;10.93;4.10;;;;;;;;;;5037991;28;20117;-82
2023/07/04 01:08:33;;;;;;;8.27;4.07;;;;;;;;;;5037606;28;20133;-83
2023/07/04 01:11:04;;;;;;;6.38;4.00;;;;;;;;;;5021512;28;20157;-83
2023/07/04 01:13:33;;;;;;;6.82;4.30;;;;;;;;;;5056554;28;20105;-83
2023/07/04 01:16:05;;;;;;;6.40;3.60;;;;;;;;;;5100007;28;20052;-83
2023/07/04 01:18:33;;;;;;;6.38;4.07;;;;;;;;;;5099542;28;20079;-83
2023/07/04 01:21:01;;;;;;;6.93;3.88;;;;;;;;;;5098674;28;20060;-84
2023/07/04 01:23:47;;;;;;;12.18;4.05;;;;;;;;;;5098218;28;20055;-83
2023/07/04 01:26:21;;;;;;;7.80;3.65;;;;;;;;;;5097533;28;20047;-84
2023/07/04 01:28:51;;;;;;;;;;;;;;;;;;5098980;28;20074;-83
2023/07/04 01:31:25;;;;;;;8.25;3.75;;;;;;;;;;5098661;28;19924;-84
2023/07/04 01:33:52;;;;;;;4.80;3.22;;;;;;;;;;5100902;28;20509;-83
2023/07/04 01:36:22;;;;;;;4.20;3.50;;;;;;;;;;5097224;28;20068;-83
2023/07/04 01:38:50;;;;;;;11.68;3.35;;;;;;;;;;5097955;28;20489;-83
2023/07/04 01:41:19;;;;;;;8.88;3.13;;;;;;;;;;5099610;28;20448;-84
2023/07/04 01:43:52;;;;;;;5.43;3.30;;;;;;;;;;5100891;28;20440;-83
2023/07/04 01:46:19;;;;;;;6.28;2.65;;;;;;;;;;5049499;22;20093;-85
2023/07/04 01:48:47;;;;;;;4.28;2.35;;;;;;;;;;5015185;28;20049;-86
2023/07/04 01:51:14;;;;;;;3.28;2.10;;;;;;;;;;5015922;28;20042;-85
2023/07/04 01:53:42;;;;;;;3.40;2.28;;;;;;;;;;5014900;28;20458;-86
2023/07/04 01:56:09;;;;;;;6.05;2.35;;;;;;;;;;5014453;28;20099;-87
2023/07/04 01:58:36;;;;;;;3.60;2.00;;;;;;;;;;5016290;28;20100;-85
2023/07/04 02:01:03;;;;;;;2.45;2.10;;;;;;;;;;5014771;28;20273;-85
2023/07/04 02:03:31;;;;;;;3.08;2.13;;;;;;;;;;5014873;28;20069;-87
2023/07/04 02:05:58;;;;;;;4.03;2.40;;;;;;;;;;5014825;28;20069;-85
2023/07/04 02:08:25;;;;;;;3.58;2.10;;;;;;;;;;5014539;28;20049;-84
2023/07/04 02:10:52;;;;;;;3.15;1.88;;;;;;;;;;5014497;28;20053;-84
2023/07/04 02:13:20;;;;;;;3.47;2.10;;;;;;;;;;5014555;28;20045;-85
2023/07/04 02:15:47;;;;;;;2.53;1.85;;;;;;;;;;5015548;28;20100;-85
2023/07/04 02:18:15;;;;;;;1.67;1.55;;;;;;;;;;5015410;28;20572;-85
2023/07/04 02:20:42;;;;;;;2.22;1.65;;;;;;;;;;5014934;28;20084;-84
2023/07/04 02:23:09;;;;;;;3.75;1.80;;;;;;;;;;5014233;28;20406;-85
2023/07/04 02:25:41;;;;;;;3.92;2.60;;;;;;;;;;5014337;28;20057;-85
2023/07/04 02:28:09;;;;;;;3.47;2.60;;;;;;;;;;5014243;28;20050;-85
2023/07/04 02:30:36;;;;;;;4.63;2.50;;;;;;;;;;5015236;28;20062;-85
2023/07/04 02:33:04;;;;;;;4.72;2.47;;;;;;;;;;5013634;28;20046;-85
2023/07/04 02:35:31;;;;;;;4.35;2.50;;;;;;;;;;5013383;28;20109;-84
2023/07/04 02:37:58;;;;;;;5.10;2.45;;;;;;;;;;5014227;28;20079;-85
2023/07/04 02:40:26;;;;;;;3.30;2.33;;;;;;;;;;5013762;28;20042;-84
2023/07/04 02:42:53;;;;;;;4.38;2.28;;;;;;;;;;5014559;28;20487;-85
2023/07/04 02:45:20;;;;;;;2.45;2.25;;;;;;;;;;5013668;28;20076;-84
2023/07/04 02:47:48;;;;;;;3.15;2.45;;;;;;;;;;5013612;28;20050;-84
2023/07/04 02:50:15;;;;;;;4.65;2.50;;;;;;;;;;5014874;28;20050;-84
2023/07/04 02:52:42;;;;;;;5.35;2.60;;;;;;;;;;5013868;28;20123;-85
2023/07/04 02:55:09;;;;;;;4.18;2.97;;;;;;;;;;5014771;28;20104;-84
2023/07/04 02:57:37;;;;;;;2.70;2.33;;;;;;;;;;5013975;28;20049;-85
2023/07/04 03:00:05;;;;;;;5.07;2.70;;;;;;;;;;5014628;28;20056;-85
2023/07/04 03:02:33;;;;;;;5.10;2.60;;;;;;;;;;5013385;28;20049;-85
2023/07/04 03:05:00;;;;;;;3.95;3.00;;;;;;;;;;5014958;28;20052;-85
2023/07/04 03:07:27;;;;;;;3.75;2.90;;;;;;;;;;5014016;28;20465;-85
2023/07/04 03:09:55;;;;;;;2.78;2.58;;;;;;;;;;5013544;28;20100;-85
2023/07/04 03:12:22;;;;;;;3.53;2.50;;;;;;;;;;5013380;28;20045;-84
2023/07/04 03:14:49;;;;;;;2.65;2.40;;;;;;;;;;5013249;28;20050;-84
2023/07/04 03:17:17;;;;;;;3.50;2.38;;;;;;;;;;5013527;28;20461;-85
2023/07/04 03:19:44;;;;;;;4.88;2.88;;;;;;;;;;5014503;28;20058;-85
2023/07/04 03:22:11;;;;;;;3.05;2.75;;;;;;;;;;5013187;28;20050;-85
2023/07/04 03:24:38;;;;;;;3.67;2.65;;;;;;;;;;5013394;28;20104;-85
2023/07/04 03:27:06;;;;;;;3.40;2.70;;;;;;;;;;5013078;28;20046;-85
2023/07/04 03:29:33;;;;;;;4.60;3.17;;;;;;;;;;5013971;28;20050;-85
2023/07/04 03:32:00;;;;;;;5.28;3.40;;;;;;;;;;5012959;28;20465;-85
2023/07/04 03:34:27;;;;;;;3.78;2.80;;;;;;;;;;5013235;28;20050;-84
2023/07/04 03:36:54;;;;;;;6.53;2.75;;;;;;;;;;5013125;28;20050;-84
2023/07/04 03:39:22;;;;;;;3.75;2.72;;;;;;;;;;5013005;28;20064;-85
2023/07/04 03:41:49;;;;;;;3.20;2.90;;;;;;;;;;5012519;28;20046;-85
2023/07/04 03:44:16;;;;;;;6.32;3.20;;;;;;;;;;5014045;28;20108;-84
2023/07/04 03:46:43;;;;;;;4.70;2.95;;;;;;;;;;5012812;28;20078;-85
2023/07/04 03:49:11;;;;;;;4.95;3.17;;;;;;;;;;5013672;28;20046;-85
2023/07/04 03:51:38;;;;;;;5.07;3.13;;;;;;;;;;5012915;28;20053;-85
2023/07/04 03:54:05;;;;;;;3.40;3.10;;;;;;;;;;5012871;28;20163;-85
2023/07/04 03:56:32;;;;;;;5.30;3.20;;;;;;;;;;5013684;28;20050;-85
2023/07/04 03:59:00;;;;;;;4.20;3.22;;;;;;;;;;5013715;28;20049;-85
2023/07/04 04:01:27;;;;;;;7.13;3.80;;;;;;;;;;5012764;28;20494;-85
2023/07/04 04:03:54;;;;;;;4.07;3.75;;;;;;;;;;5012691;28;20049;-85
2023/07/04 04:06:22;;;;;;;4.50;3.70;;;;;;;;;;5013505;28;20505;-85
2023/07/04 04:08:49;;;;;;;5.85;4.38;;;;;;;;;;5013174;28;20054;-85
2023/07/04 04:11:16;;;;;;;5.15;3.97;;;;;;;;;;5011879;28;20053;-85
2023/07/04 04:13:44;;;;;;;6.85;3.17;;;;;;;;;;5013465;28;20111;-84
2023/07/04 04:16:12;;;;;;;7.35;3.50;;;;;;;;;;5012344;28;20439;-85
2023/07/04 04:18:39;;;;;;;7.18;3.85;;;;;;;;;;5012033;28;20395;-85
2023/07/04 04:21:07;;;;;;;7.90;3.50;;;;;;;;;;5013070;28;20100;-85
2023/07/04 04:23:34;;;;;;;9.45;4.35;;;;;;;;;;5013088;28;20058;-84
2023/07/04 04:26:03;;;;;;;8.07;5.18;;;;;;;;;;5011968;28;20077;-85
2023/07/04 04:28:30;;;;;;;9.55;5.78;;;;;;;;;;5013009;28;20045;-85
2023/07/04 04:30:58;;;;;;;9.80;5.35;;;;;;;;;;5011944;28;20081;-85
2023/07/04 04:33:25;;;;;;;7.07;4.47;;;;;;;;;;5011696;28;20064;-85
2023/07/04 04:35:52;;;;;;;4.72;4.20;;;;;;;;;;5011836;28;20119;-85
2023/07/04 04:38:19;;;;;;;5.53;3.90;;;;;;;;;;5012826;28;20104;-84
2023/07/04 04:40:47;;;;;;;4.53;3.53;;;;;;;;;;5011990;28;20124;-85
2023/07/04 04:43:14;;;;;;;11.45;3.90;;;;;;;;;;5012046;28;20050;-85
2023/07/04 04:45:41;;;;;;;6.00;3.50;;;;;;;;;;5013069;28;20127;-85
2023/07/04 04:48:08;;;;;;;5.60;3.45;;;;;;;;;;5012449;28;20482;-85
2023/07/04 04:50:36;;;;;;;6.00;3.65;;;;;;;;;;5011571;28;20054;-85
2023/07/04 04:53:03;;;;;;;4.00;3.10;;;;;;;;;;5011259;28;20046;-85
2023/07/04 04:55:30;;;;;;;6.95;3.78;;;;;;;;;;5012230;28;20050;-85
2023/07/04 04:57:57;;;;;;;5.18;3.33;;;;;;;;;;5012304;28;20138;-85
2023/07/04 05:00:25;;;;;;;5.78;3.38;;;;;;;;;;5012273;28;20173;-85
2023/07/04 05:02:56;;;;;;;3.65;3.33;;;;;;;;;;5012984;28;20410;-85
2023/07/04 05:05:23;;;;;;;6.03;3.33;;;;;;;;;;5011692;28;20054;-85
2023/07/04 05:07:51;;;;;;;5.78;3.05;;;;;;;;;;5011982;28;20046;-85
2023/07/04 05:10:18;;;;;;;4.85;3.20;;;;;;;;;;5012134;28;20196;-85
2023/07/04 05:12:45;;;;;;;5.07;3.15;;;;;;;;;;5011756;28;20091;-85
2023/07/04 05:15:12;;;;;;;7.35;3.40;;;;;;;;;;5011926;28;20080;-85
2023/07/04 05:17:40;;;;;;;3.20;2.78;;;;;;;;;;5011769;28;20526;-86
2023/07/04 05:20:09;;;;;;;5.75;3.00;;;;;;;;;;5011594;28;20123;-85
2023/07/04 05:22:36;;;;;;;7.13;2.55;;;;;;;;;;5012352;28;20434;-85
2023/07/04 05:25:03;;;;;;;5.68;2.53;;;;;;;;;;5012620;28;20046;-85
2023/07/04 05:27:31;;;;;;;7.75;2.80;;;;;;;;;;5028349;28;20046;-86
2023/07/04 05:29:58;;;;;;;4.40;2.90;;;;;;;;;;5012083;28;20502;-85
2023/07/04 05:32:25;;;;;;;2.42;2.13;;;;;;;;;;5015235;28;20081;-85
2023/07/04 05:34:53;;;;;;;7.90;2.13;;;;;;;;;;5031823;28;20054;-85
2023/07/04 05:37:20;;;;;;;2.92;2.58;;;;;;;;;;5016379;28;20073;-85
2023/07/04 05:39:47;;;;;;;5.82;2.75;;;;;;;;;;5031602;28;20050;-85
2023/07/04 05:42:15;;;;;;;5.55;3.05;;;;;;;;;;5031505;28;20046;-86
2023/07/04 05:44:42;;;;;;;3.75;2.40;;;;;;;;;;5016176;28;20556;-87
2023/07/04 05:47:09;;;;;;;5.93;2.83;;;;;;;;;;5031509;28;20053;-85
2023/07/04 05:49:37;;;;;;;7.63;2.88;;;;;;;;;;5032189;28;20046;-91
2023/07/04 05:52:04;;;;;;;8.02;3.60;;;;;;;;;;5033523;28;20109;-85
2023/07/04 05:54:31;;;;;;;5.07;2.88;;;;;;;;;;5031509;28;20050;-85
2023/07/04 05:56:59;;;;;;;4.00;3.05;;;;;;;;;;5015714;28;20046;-85
2023/07/04 05:59:26;;;;;;;7.68;3.05;;;;;;;;;;5030813;28;20042;-84
2023/07/04 06:01:53;;;;;;;5.07;2.70;;;;;;;;;;5031057;28;20461;-86
2023/07/04 06:04:20;;;;;;;4.78;2.65;;;;;;;;;;5015860;28;20096;-88
2023/07/04 06:06:52;;;;;;;5.90;3.47;;;;;;;;;;5015932;28;20050;-85
2023/07/04 06:09:20;;;;;;;4.07;2.95;;;;;;;;;;5030983;28;20100;-84
2023/07/04 06:11:48;;;;;;;4.57;2.65;;;;;;;;;;5015359;28;20049;-84
2023/07/04 06:14:17;;;;;;;9.95;3.78;;;;;;;;;;5030934;28;20100;-86
2023/07/04 06:16:44;;;;;;;3.10;2.38;;;;;;;;;;5030820;28;20078;-86
2023/07/04 06:19:11;;;;;;;7.90;3.08;;;;;;;;;;5015444;28;20057;-85
2023/07/04 06:21:39;;;;;;;5.47;2.60;;;;;;;;;;5031257;28;20053;-88
2023/07/04 06:24:11;;;;;;;6.70;2.90;;;;;;;;;;5015321;28;20050;-85
2023/07/04 06:26:39;;;;;;;3.88;2.60;;;;;;;;;;5030730;28;20057;-85
2023/07/04 06:29:06;;;;;;;10.23;2.97;;;;;;;;;;5015526;28;20418;-86
2023/07/04 06:31:33;;;;;;;6.93;3.22;;;;;;;;;;5030792;28;20049;-85
2023/07/04 06:34:01;;;;;;;3.60;2.78;;;;;;;;;;5015556;28;20046;-87
2023/07/04 06:36:28;;;;;;;6.85;3.10;;;;;;;;;;5015220;28;20056;-85
2023/07/04 06:38:59;;;;;;;7.43;3.03;;;;;;;;;;5015150;28;20046;-90
2023/07/04 06:41:27;;;;;;;7.78;3.15;;;;;;;;;;5015190;28;20516;-86
2023/07/04 06:43:54;;;;;;;4.25;2.80;;;;;;;;;;5015246;28;20050;-86
2023/07/04 06:46:22;;;;;;;4.22;2.70;;;;;;;;;;5030175;28;20089;-86
2023/07/04 06:48:50;;;;;;;9.15;2.85;;;;;;;;;;5030504;28;20096;-86
2023/07/04 06:51:18;;;;;;;4.32;2.78;;;;;;;;;;5014603;28;20329;-87
2023/07/04 06:53:45;;;;;;;4.13;3.10;;;;;;;;;;5014454;28;20517;-84
2023/07/04 06:56:14;;;;;;;10.35;2.95;;;;;;;;;;5030482;28;20049;-87
2023/07/04 06:58:43;;;;;;;5.47;2.83;;;;;;;;;;5030614;28;20486;-85
2023/07/04 07:01:11;;;;;;;10.07;3.45;;;;;;;;;;5014944;28;20046;-86
2023/07/04 07:03:39;;;;;;;6.10;3.03;;;;;;;;;;5014934;28;20049;-85
2023/07/04 07:06:08;;;;;;;4.82;2.40;;;;;;;;;;5029880;28;20046;-86
2023/07/04 07:08:36;;;;;;;6.70;2.65;;;;;;;;;;5030414;28;20103;-86
2023/07/04 07:11:04;;;;;;;5.10;2.63;;;;;;;;;;5029848;28;20053;-86
2023/07/04 07:13:31;;;;;;;6.55;3.30;;;;;;;;;;5014783;28;20053;-86
2023/07/04 07:16:10;;;;;;;6.05;3.38;;;;;;;;;;5014066;28;20050;-86
2023/07/04 07:18:38;;;;;;;3.78;2.90;;;;;;;;;;5030639;28;20124;-86
2023/07/04 07:21:08;;;;;;;6.70;2.80;;;;;;;;;;5014687;28;20144;-86
2023/07/04 07:23:36;;;;;;;4.07;2.50;;;;;;;;;;5029754;28;20560;-84
2023/07/04 07:26:04;;;;;;;3.83;2.65;;;;;;;;;;5029379;28;20046;-84
2023/07/04 07:28:32;;;;;;;3.50;2.83;;;;;;;;;;5030041;28;20383;-86
2023/07/04 07:31:06;;;;;;;6.63;3.20;;;;;;;;;;5028907;28;20433;-86
2023/07/04 07:33:35;;;;;;;5.53;2.70;;;;;;;;;;5029659;28;20137;-89
2023/07/04 07:36:10;;;;;;;4.30;2.65;;;;;;;;;;5014723;28;20058;-86
2023/07/04 07:38:37;;;;;;;5.32;2.33;;;;;;;;;;5014332;28;20050;-90
2023/07/04 07:41:05;;;;;;;5.70;2.60;;;;;;;;;;5029472;28;20417;-85
2023/07/04 07:43:46;;;;;;;3.58;2.72;;;;;;;;;;5111425;27;20457;-84
2023/07/04 07:46:14;;;;;;;7.25;3.10;;;;;;;;;;5111092;28;20055;-85
2023/07/04 07:48:42;;;;;;;5.15;2.70;;;;;;;;;;5110169;28;20048;-84
2023/07/04 07:51:11;;;;;;;5.43;2.45;;;;;;;;;;5110544;28;20047;-87
2023/07/04 07:53:40;;;;;;;8.50;2.83;;;;;;;;;;5111278;28;20056;-91
2023/07/04 07:56:09;;;;;;;19.42;3.42;;;;;;;;;;5110519;28;20581;-86
2023/07/04 07:58:36;;;;;;;7.35;3.00;;;;;;;;;;5112476;28;20055;-84
2023/07/04 08:01:14;;;;;;;6.95;2.60;;;;;;;;;;5110107;28;20044;-84
2023/07/04 08:03:42;;;;;;;4.07;2.50;;;;;;;;;;5109625;28;20109;-87
2023/07/04 08:06:19;;;;;;;6.85;3.13;;;;;;;;;;5110619;28;20055;-86
2023/07/04 08:08:46;;;;;;;9.40;3.25;;;;;;;;;;5113504;28;20495;-85
2023/07/04 08:11:14;;;;;;;5.82;2.88;;;;;;;;;;5109505;28;20090;-85
2023/07/04 08:13:41;;;;;;;5.35;3.15;;;;;;;;;;5110875;28;20044;-85
2023/07/04 08:16:09;;;;;;;6.63;5.65;;;;;;;;;;5109295;28;20071;-86
2023/07/04 08:18:36;;;;;;;13.20;9.35;;;;;;;;;;5109205;28;20079;-84
2023/07/04 08:21:04;;;;;;;32.40;25.92;;;;;;;;;;5108691;28;20081;-86
2023/07/04 08:23:32;;;;;;;11.55;9.18;;;;;;;;;;5108989;28;20052;-85
2023/07/04 08:25:59;;;;;;;6.70;4.20;;;;;;;;;;5110367;28;20082;-83
2023/07/04 08:28:26;;;;;;;6.10;3.97;;;;;;;;;;5109106;28;20431;-85
2023/07/04 08:30:53;;;;;;;6.80;3.13;;;;;;;;;;5109238;28;20452;-85
2023/07/04 08:33:21;;;;;;;5.95;3.22;;;;;;;;;;5108905;28;20051;-85
2023/07/04 08:35:59;;;;;;;6.13;3.33;;;;;;;;;;5109711;28;20105;-85
2023/07/04 08:38:26;;;;;;;7.50;5.25;;;;;;;;;;5108602;28;20055;-84
2023/07/04 08:40:54;;;;;;;6.45;5.70;;;;;;;;;;5108855;28;20048;-88
2023/07/04 08:43:24;;;;;;;9.25;4.55;;;;;;;;;;5108403;28;20060;-85
2023/07/04 08:45:52;;;;;;;9.02;3.85;;;;;;;;;;5109724;28;20051;-86
2023/07/04 08:48:19;;;;;;;5.20;3.95;;;;;;;;;;5108681;28;20051;-84
2023/07/04 08:50:48;;;;;;;8.38;4.22;;;;;;;;;;5109567;28;20052;-86
2023/07/04 08:53:17;;;;;;;8.90;3.60;;;;;;;;;;5105527;28;20512;-89
2023/07/04 08:55:55;;;;;;;13.82;3.80;;;;;;;;;;5095431;28;20044;-94
2023/07/04 08:58:25;;;;;;;11.02;4.13;;;;;;;;;;5095805;28;20048;-84
2023/07/04 09:00:53;;;;;;;6.78;4.20;;;;;;;;;;5094664;28;20044;-84
2023/07/04 09:03:28;;;;;;;7.15;4.25;;;;;;;;;;5095815;28;20052;-84
2023/07/04 09:06:11;;;;;;;11.90;5.30;;;;;;;;;;5094778;28;20487;-84
2023/07/04 09:08:49;;;;;;;11.60;4.57;;;;;;;;;;5094413;28;20074;-83
2023/07/04 09:11:17;;;;;;;6.93;4.25;;;;;;;;;;5094230;28;20078;-84
2023/07/04 09:13:46;;;;;;;6.00;4.53;;;;;;;;;;5094796;28;20040;-86
2023/07/04 09:16:32;;;;;;;7.25;4.80;;;;;;;;;;5094719;28;20097;-84
2023/07/04 09:19:01;;;;;;;20.10;5.03;;;;;;;;;;5095822;28;20401;-89
2023/07/04 09:21:30;;;;;;;10.05;4.93;;;;;;;;;;5095018;28;20492;-83
2023/07/04 09:23:59;;;;;;;8.98;4.60;;;;;;;;;;5094232;28;20047;-86
2023/07/04 09:26:29;;;;;;;9.05;5.63;;;;;;;;;;5095059;28;20101;-84
2023/07/04 09:28:57;;;;;;;8.20;4.90;;;;;;;;;;5094710;28;20082;-84
2023/07/04 09:31:29;;;;;;;10.27;5.93;;;;;;;;;;5095445;28;20097;-84
2023/07/04 09:33:57;;;;;;;8.70;5.43;;;;;;;;;;5095015;28;20044;-84
2023/07/04 09:36:32;;;;;;;7.85;5.60;;;;;;;;;;5094930;28;20113;-85
2023/07/04 09:39:04;;;;;;;5.25;4.72;;;;;;;;;;5093905;28;20098;-85
2023/07/04 09:41:35;;;;;;;11.05;5.90;;;;;;;;;;5094042;28;20048;-88
2023/07/04 09:44:29;;;;;;;8.95;6.05;;;;;;;;;;5095396;28;20048;-85
2023/07/04 09:46:58;;;;;;;9.55;6.15;;;;;;;;;;5094300;28;20052;-83
2023/07/04 09:49:27;;;;;;;10.32;6.18;;;;;;;;;;5094085;28;20403;-85
2023/07/04 09:52:19;;;;;;;6.30;5.68;;;;;;;;;;5093778;28;20048;-85
2023/07/04 09:55:05;;;;;;;8.40;5.95;;;;;;;;;;5093660;28;20048;-86
2023/07/04 09:57:32;;;;;;;9.73;6.93;;;;;;;;;;5093704;28;20097;-85
2023/07/04 10:00:15;;;;;;;8.75;6.53;;;;;;;;;;5093516;28;20056;-85
2023/07/04 10:02:43;;;;;;;9.68;7.35;;;;;;;;;;5093871;28;20040;-84
2023/07/04 10:05:12;;;;;;;8.68;7.03;;;;;;;;;;5092537;28;20056;-85
2023/07/04 10:07:40;;;;;;;7.25;6.55;;;;;;;;;;5093755;28;20056;-85
2023/07/04 10:10:08;;;;;;;8.60;7.47;;;;;;;;;;5094701;28;20537;-85
2023/07/04 10:12:43;;;;;;;8.00;7.15;;;;;;;;;;5093257;28;20109;-85
2023/07/04 10:15:11;;;;;;;8.13;7.32;;;;;;;;;;5094180;28;20130;-86
2023/07/04 10:17:39;;;;;;;10.38;7.70;;;;;;;;;;5094613;28;20446;-86
2023/07/04 10:20:12;;;;;;;12.25;7.47;;;;;;;;;;5093194;28;20491;-86
2023/07/04 10:22:41;;;;;;;16.50;6.90;;;;;;;;;;5093392;28;20462;-84
2023/07/04 10:25:15;;;;;;;10.30;8.55;;;;;;;;;;5093225;28;20105;-85
2023/07/04 10:27:45;;;;;;;14.10;8.50;;;;;;;;;;5093759;28;20051;-85
2023/07/04 10:30:15;;;;;;;14.60;7.20;;;;;;;;;;5092752;28;20048;-85
2023/07/04 10:32:54;;;;;;;12.18;7.63;;;;;;;;;;5093033;28;20069;-87
2023/07/04 10:35:24;;;;;;;15.48;8.80;;;;;;;;;;5093217;28;20070;-83
2023/07/04 10:37:58;;;;;;;9.00;7.90;;;;;;;;;;5094081;28;20048;-87
2023/07/04 10:40:26;;;;;;;8.13;7.30;;;;;;;;;;5092879;28;20047;-85
2023/07/04 10:43:05;;;;;;;8.05;7.25;;;;;;;;;;5092218;28;20056;-84
2023/07/04 10:45:33;;;;;;;11.70;7.18;;;;;;;;;;5093919;28;20476;-85
2023/07/04 10:48:09;;;;;;;9.70;6.75;;;;;;;;;;5093845;28;20044;-84
2023/07/04 10:50:39;;;;;;;8.98;7.32;;;;;;;;;;5093944;28;20567;-86
2023/07/04 10:53:07;;;;;;;8.63;7.50;;;;;;;;;;5093957;28;20496;-85
2023/07/04 10:55:37;;;;;;;7.82;7.03;;;;;;;;;;5092405;28;20499;-86
2023/07/04 10:58:09;;;;;;;8.77;7.68;;;;;;;;;;5092722;28;20044;-86
2023/07/04 11:00:55;;;;;;;23.80;8.18;;;;;;;;;;5093092;28;20419;-85
2023/07/04 11:03:39;;;;;;;18.17;8.32;;;;;;;;;;5092643;28;20055;-85
2023/07/04 11:06:10;;;;;;;15.00;8.63;;;;;;;;;;5093808;28;20055;-83
2023/07/04 11:08:39;;;;;;;9.40;8.07;;;;;;;;;;5092361;28;20416;-86
2023/07/04 11:11:08;;;;;;;15.60;8.10;;;;;;;;;;5092208;28;20048;-87
2023/07/04 11:13:48;;;;;;;10.50;8.38;;;;;;;;;;5092879;28;20409;-85
2023/07/04 11:16:17;;;;;;;11.48;8.85;;;;;;;;;;5092286;28;20074;-84
2023/07/04 11:18:59;;;;;;;8.75;7.85;;;;;;;;;;5092507;28;20086;-86
2023/07/04 11:21:26;;;;;;;14.68;8.32;;;;;;;;;;5093729;28;20090;-83
2023/07/04 11:23:56;;;;;;;10.85;8.88;;;;;;;;;;5092222;28;20047;-84
2023/07/04 11:26:42;;;;;;;12.68;9.20;;;;;;;;;;5092142;28;20083;-86
2023/07/04 11:29:16;;;;;;;11.05;8.25;;;;;;;;;;5092270;28;20547;-83
2023/07/04 11:32:05;;;;;;;11.90;8.23;;;;;;;;;;5092408;28;20044;-85
2023/07/04 11:34:43;;;;;;;8.98;7.35;;;;;;;;;;5091995;28;20044;-88
2023/07/04 11:37:10;;;;;;;8.48;7.32;;;;;;;;;;5091882;28;20056;-90
2023/07/04 11:39:39;;;;;;;12.00;8.75;;;;;;;;;;5093706;28;20044;-86
2023/07/04 11:42:28;;;;;;;11.32;8.73;;;;;;;;;;5092803;28;20113;-84
2023/07/04 11:44:58;;;;;;;10.00;8.32;;;;;;;;;;5091944;28;20048;-85
2023/07/04 11:47:37;;;;;;;10.70;8.55;;;;;;;;;;5092209;28;20403;-90
2023/07/04 11:50:10;;;;;;;15.57;8.93;;;;;;;;;;5092149;28;20044;-87
2023/07/04 11:52:39;;;;;;;11.43;8.02;;;;;;;;;;5093024;28;20052;-85
2023/07/04 11:55:13;;;;;;;10.65;8.55;;;;;;;;;;5092408;28;20074;-87
2023/07/04 11:57:40;;;;;;;;;;;;;;;;;;5092288;28;20629;-83
2023/07/04 12:00:21;;;;;;;12.55;9.95;;;;;;;;;;5092828;28;19927;-86
2023/07/04 12:02:48;;;;;;;14.68;9.82;;;;;;;;;;5093015;28;20103;-89
2023/07/04 12:05:30;;;;;;;11.10;9.30;;;;;;;;;;5091993;28;20055;-85
2023/07/04 12:08:01;;;;;;;10.93;9.80;;;;;;;;;;5091561;28;20048;-85
2023/07/04 12:10:30;;;;;;;15.10;9.57;;;;;;;;;;5091877;28;20048;-86
2023/07/04 12:13:07;;;;;;;11.48;9.50;;;;;;;;;;5091692;28;20052;-84
2023/07/04 12:15:35;;;;;;;19.45;10.43;;;;;;;;;;5091872;28;20040;-84
2023/07/04 12:18:14;;;;;;;12.85;10.10;;;;;;;;;;5091880;28;20044;-84
2023/07/04 12:20:42;;;;;;;12.50;10.77;;;;;;;;;;5091231;28;20481;-88
2023/07/04 12:23:10;;;;;;;14.05;11.10;;;;;;;;;;5092496;28;20484;-84
2023/07/04 12:25:42;;;;;;;11.52;10.25;;;;;;;;;;5091704;28;20052;-84
2023/07/04 12:28:10;;;;;;;15.63;10.90;;;;;;;;;;5092029;28;20044;-86
2023/07/04 12:31:01;;;;;;;14.48;10.60;;;;;;;;;;5095344;28;20492;-86
2023/07/04 12:33:48;;;;;;;11.98;9.30;;;;;;;;;;5095481;28;20048;-84
2023/07/04 12:36:19;;;;;;;15.00;10.35;;;;;;;;;;5095355;28;20055;-86
2023/07/04 12:38:50;;;;;;;16.27;10.40;;;;;;;;;;5095226;28;20055;-84
2023/07/04 12:41:19;;;;;;;13.75;9.95;;;;;;;;;;5095044;28;20056;-85
2023/07/04 12:43:51;;;;;;;15.30;10.20;;;;;;;;;;5095915;28;20044;-85
2023/07/04 12:46:21;;;;;;;17.13;10.57;;;;;;;;;;5096332;28;20407;-85
2023/07/04 12:48:51;;;;;;;19.38;11.30;;;;;;;;;;5095733;28;20052;-85
2023/07/04 12:51:24;;;;;;;13.88;10.75;;;;;;;;;;5095473;28;20462;-85
2023/07/04 12:53:51;;;;;;;22.35;11.65;;;;;;;;;;5096388;28;20526;-82
2023/07/04 12:56:20;;;;;;;17.75;11.50;;;;;;;;;;5096140;28;20400;-85
2023/07/04 12:58:48;;;;;;;15.55;10.85;;;;;;;;;;5095432;28;20071;-87
2023/07/04 13:01:35;;;;;;;15.02;10.82;;;;;;;;;;5094889;28;20435;-85
2023/07/04 13:04:08;;;;;;;18.50;11.07;;;;;;;;;;5094630;28;20496;-85
2023/07/04 13:06:37;;;;;;;13.10;11.25;;;;;;;;;;5094549;28;20052;-85
2023/07/04 13:09:05;;;;;;;16.27;12.32;;;;;;;;;;5094647;28;20499;-85
2023/07/04 13:11:33;;;;;;;15.25;12.15;;;;;;;;;;5095776;28;20082;-84
2023/07/04 13:14:08;;;;;;;18.50;11.82;;;;;;;;;;5094578;28;20052;-84
2023/07/04 13:16:36;;;;;;;14.35;11.38;;;;;;;;;;5094338;28;20075;-85
2023/07/04 13:19:06;;;;;;;16.70;10.98;;;;;;;;;;5095292;28;20051;-89
2023/07/04 13:21:35;;;;;;;13.57;10.70;;;;;;;;;;5094571;28;20388;-85
2023/07/04 13:24:03;;;;;;;12.57;10.55;;;;;;;;;;5094278;28;20058;-84
2023/07/04 13:26:34;;;;;;;13.52;10.43;;;;;;;;;;5094224;28;20101;-85
2023/07/04 13:29:14;;;;;;;18.23;11.57;;;;;;;;;;5094965;28;20048;-86
2023/07/04 13:31:45;;;;;;;19.02;11.05;;;;;;;;;;5094436;28;20051;-85
2023/07/04 13:34:24;;;;;;;14.65;11.02;;;;;;;;;;5094676;28;20449;-88
2023/07/04 13:36:51;;;;;;;13.63;11.18;;;;;;;;;;5095206;28;20097;-87
2023/07/04 13:39:19;;;;;;;14.80;11.80;;;;;;;;;;5094968;28;20074;-85
2023/07/04 13:41:51;;;;;;;17.10;11.93;;;;;;;;;;5094094;28;20052;-85
2023/07/04 13:44:19;;;;;;;15.45;11.25;;;;;;;;;;5095228;28;20052;-86
2023/07/04 13:46:50;;;;;;;17.20;11.30;;;;;;;;;;5094398;28;20048;-84
2023/07/04 13:49:17;;;;;;;13.63;11.15;;;;;;;;;;5094282;28;20453;-84
2023/07/04 13:51:44;;;;;;;16.55;11.38;;;;;;;;;;5094923;28;20040;-84
2023/07/04 13:54:12;;;;;;;12.55;10.60;;;;;;;;;;5094647;28;20055;-85
2023/07/04 13:56:39;;;;;;;13.35;11.45;;;;;;;;;;5094815;28;20446;-87
2023/07/04 13:59:07;;;;;;;15.70;11.15;;;;;;;;;;5094358;28;20048;-88
2023/07/04 14:01:34;;;;;;;13.95;11.30;;;;;;;;;;5094933;28;20040;-85
2023/07/04 14:04:04;;;;;;;15.05;11.35;;;;;;;;;;5094853;28;20078;-86
2023/07/04 14:06:34;;;;;;;15.48;11.52;;;;;;;;;;5094670;28;20454;-86
2023/07/04 14:09:02;;;;;;;14.30;11.02;;;;;;;;;;5094034;28;20423;-85
2023/07/04 14:11:29;;;;;;;14.13;10.80;;;;;;;;;;5094454;28;20484;-84
2023/07/04 14:13:57;;;;;;;16.17;11.75;;;;;;;;;;5094823;28;20048;-85
2023/07/04 14:16:31;;;;;;;14.18;11.18;;;;;;;;;;5093651;28;20460;-84
2023/07/04 14:19:01;;;;;;;13.98;11.18;;;;;;;;;;5094252;28;20047;-84
2023/07/04 14:21:49;;;;;;;12.40;11.07;;;;;;;;;;5093646;28;20044;-86
2023/07/04 14:24:16;;;;;;;12.35;11.02;;;;;;;;;;5094439;28;20421;-84
2023/07/04 14:26:45;;;;;;;12.85;10.95;;;;;;;;;;5093725;28;20117;-84
2023/07/04 14:29:12;;;;;;;15.85;11.27;;;;;;;;;;5093552;28;20055;-85
2023/07/04 14:31:40;;;;;;;14.15;11.07;;;;;;;;;;5092893;28;20085;-86
2023/07/04 14:34:07;;;;;;;13.63;10.90;;;;;;;;;;5092611;28;20044;-83
2023/07/04 14:36:35;;;;;;;15.23;11.90;;;;;;;;;;5092923;28;20056;-83
2023/07/04 14:39:02;;;;;;;12.98;11.23;;;;;;;;;;5093281;28;20113;-84
2023/07/04 14:41:30;;;;;;;15.30;11.68;;;;;;;;;;5092847;28;20109;-88
2023/07/04 14:44:00;;;;;;;17.63;11.85;;;;;;;;;;5092785;28;20048;-84
2023/07/04 14:46:27;;;;;;;18.30;11.63;;;;;;;;;;5093826;28;20093;-84
2023/07/04 14:48:55;;;;;;;14.45;11.25;;;;;;;;;;5093631;28;20045;-85
2023/07/04 14:51:22;;;;;;;16.30;11.60;;;;;;;;;;5092992;28;20052;-85